Locustwood, New York
Current Conditions -  °F | °C
As of 3:51 PM on Friday 24 Oct 2014 (Local Time) from KJFK Reporting Station
Broken Clouds Broken Clouds  
Wind Chill: 62°   Ceiling: 4700
Heat Index: 62°   Visibility: 10mi
Dew Point: 44°   Wind: 8mph
Humidity: 52%   Direction: 360°N
Pressure: 29.77"   Gusts: NA
Location:  40.7013°N, 73.7074°W
Report Text: KJFK 241951Z 36007KT 10SM BKN047 BKN250 17/07 A2977 RMK AO2 SLP080 T01670067
Loading
Personal Weather Stations






























Interactive Weather Map
Tropical Storm Tracking
New forecast layout! Learn more

10-Day Weather Forecast

Advertisements
Track Severe Weather on mobile